createdAt,value
2023-02-26T00:00:15.439Z,96005.94
2023-02-26T00:02:44.010Z,96007.56
2023-02-26T00:05:10.656Z,95999.81
2023-02-26T00:07:38.035Z,96005.44
2023-02-26T00:10:07.872Z,96008.63
2023-02-26T00:12:34.974Z,96003.28
2023-02-26T00:15:02.163Z,96012.94
2023-02-26T00:17:46.261Z,96010.78
2023-02-26T00:20:13.314Z,96007.03
2023-02-26T00:22:40.749Z,95999.28
2023-02-26T00:25:08.625Z,96002.22
2023-02-26T00:27:36.309Z,96004.38
2023-02-26T00:30:07.907Z,96000.66
2023-02-26T00:32:35.901Z,95991.28
2023-02-26T00:35:02.981Z,96002.50
2023-02-26T00:37:54.349Z,96009.47
2023-02-26T00:40:39.327Z,96004.91
2023-02-26T00:43:09.360Z,95998.78
2023-02-26T00:45:37.733Z,96000.38
2023-02-26T00:48:27.151Z,95998.47
2023-02-26T00:51:08.564Z,96007.56
2023-02-26T00:53:47.172Z,96007.84
2023-02-26T00:56:14.602Z,96008.09
2023-02-26T00:58:41.253Z,96002.25
2023-02-26T01:01:08.813Z,95998.47
2023-02-26T01:03:35.879Z,95996.09
2023-02-26T01:06:02.909Z,95991.00
2023-02-26T01:08:33.252Z,95994.75
2023-02-26T01:11:00.337Z,95998.50
2023-02-26T01:13:27.138Z,96007.59
2023-02-26T01:16:02.382Z,96008.69
2023-02-26T01:18:38.777Z,96010.03
2023-02-26T01:21:10.837Z,96014.06
2023-02-26T01:23:41.782Z,96011.63
2023-02-26T01:26:17.506Z,96015.66
2023-02-26T01:28:44.529Z,96023.69
2023-02-26T01:31:34.357Z,96023.19
2023-02-26T01:34:17.288Z,96022.66
2023-02-26T01:36:57.952Z,96029.91
2023-02-26T01:39:41.223Z,96030.41
2023-02-26T01:42:22.038Z,96035.00
2023-02-26T01:45:01.864Z,96037.13
2023-02-26T01:47:57.397Z,96025.88
2023-02-26T01:50:29.945Z,96021.34
2023-02-26T01:53:17.926Z,96014.69
2023-02-26T01:55:49.489Z,96015.22
2023-02-26T01:58:17.245Z,96004.28
2023-02-26T02:00:43.966Z,96010.69
2023-02-26T02:03:11.048Z,96007.75
2023-02-26T02:06:31.172Z,95999.47
2023-02-26T02:08:58.011Z,95995.72
2023-02-26T02:11:24.813Z,95993.28
2023-02-26T02:14:15.370Z,95988.75
2023-02-26T02:17:03.038Z,95989.84
2023-02-26T02:19:58.790Z,95981.53
2023-02-26T02:22:34.450Z,95977.25
2023-02-26T02:25:25.904Z,95985.53
2023-02-26T02:28:17.035Z,95987.41
2023-02-26T02:30:58.950Z,95975.38
2023-02-26T02:33:34.650Z,95995.97
2023-02-26T02:36:08.163Z,95991.13
2023-02-26T02:38:42.647Z,96002.91
2023-02-26T02:41:22.903Z,95993.25
2023-02-26T02:43:51.950Z,95994.84
2023-02-26T02:46:32.108Z,95999.69
2023-02-26T02:49:05.892Z,95991.13
2023-02-26T02:51:45.226Z,96003.44
2023-02-26T02:54:36.381Z,96005.28
2023-02-26T02:57:13.357Z,96003.94
2023-02-26T02:59:45.318Z,96007.66
2023-02-26T03:02:18.097Z,96012.22
2023-02-26T03:04:45.681Z,96005.28
2023-02-26T03:07:12.372Z,96007.66
2023-02-26T03:09:39.305Z,96005.53
2023-02-26T03:12:06.173Z,96011.09
2023-02-26T03:14:33.558Z,96014.06
2023-02-26T03:17:12.212Z,96016.44
2023-02-26T03:20:17.112Z,96019.94
2023-02-26T03:22:49.569Z,96033.03
2023-02-26T03:25:33.619Z,96022.63
2023-02-26T03:28:20.566Z,96019.91
2023-02-26T03:31:29.670Z,96026.06
2023-02-26T03:34:04.917Z,96021.50
2023-02-26T03:36:47.195Z,96021.00
2023-02-26T03:39:43.043Z,96025.22
2023-02-26T03:42:38.126Z,96022.81
2023-02-26T03:45:33.193Z,96019.88
2023-02-26T03:48:02.666Z,96026.03
2023-02-26T03:50:41.434Z,96016.41
2023-02-26T03:53:13.030Z,96010.78
2023-02-26T03:55:56.605Z,96011.59
2023-02-26T03:58:23.645Z,96004.94
2023-02-26T04:00:57.352Z,95990.50
2023-02-26T04:03:42.887Z,95994.78
2023-02-26T04:06:10.081Z,95990.50
2023-02-26T04:08:37.006Z,95990.78
2023-02-26T04:11:06.695Z,95988.63
2023-02-26T04:13:33.723Z,95995.56
2023-02-26T04:16:00.547Z,95975.25
2023-02-26T04:18:27.411Z,95992.91
2023-02-26T04:20:54.151Z,95995.84
2023-02-26T04:23:20.889Z,95999.06
2023-02-26T04:25:47.573Z,95986.47
2023-02-26T04:28:14.268Z,95997.44
2023-02-26T04:30:41.157Z,96011.06
2023-02-26T04:33:07.836Z,96000.09
2023-02-26T04:35:34.484Z,96006.53
2023-02-26T04:38:01.151Z,95999.03
2023-02-26T04:40:27.941Z,95987.28
2023-02-26T04:42:54.600Z,96000.34
2023-02-26T04:45:21.351Z,95990.69
2023-02-26T04:47:48.245Z,96006.16
2023-02-26T04:50:14.981Z,96003.19
2023-02-26T04:52:41.786Z,96003.69
2023-02-26T04:55:09.264Z,96013.56
2023-02-26T04:57:35.906Z,96011.47
2023-02-26T05:00:06.494Z,96011.72
2023-02-26T05:02:33.569Z,96005.28
2023-02-26T05:05:00.233Z,96005.84
2023-02-26T05:07:26.892Z,95999.72
2023-02-26T05:09:53.601Z,96000.50
2023-02-26T05:12:20.297Z,96000.25
2023-02-26T05:14:46.925Z,96003.47
2023-02-26T05:17:13.519Z,95993.59
2023-02-26T05:19:40.282Z,95987.19
2023-02-26T05:22:13.819Z,95982.91
2023-02-26T05:24:40.775Z,95999.72
2023-02-26T05:27:07.422Z,95989.84
2023-02-26T05:29:34.346Z,96000.53
2023-02-26T05:32:02.018Z,95998.91
2023-02-26T05:34:28.666Z,96001.03
2023-02-26T05:36:55.358Z,96003.19
2023-02-26T05:39:21.998Z,96010.41
2023-02-26T05:41:48.860Z,96003.69
2023-02-26T05:44:15.473Z,96006.66
2023-02-26T05:46:42.200Z,96007.44
2023-02-26T05:49:09.522Z,96015.72
2023-02-26T05:51:36.161Z,96013.06
2023-02-26T05:54:02.772Z,96017.31
2023-02-26T05:56:29.509Z,96018.13
2023-02-26T05:58:56.165Z,96021.88
2023-02-26T06:01:23.052Z,96030.16
2023-02-26T06:03:49.841Z,96030.16
2023-02-26T06:06:18.533Z,96033.63
2023-02-26T06:08:46.260Z,96016.81
2023-02-26T06:11:13.521Z,96007.66
2023-02-26T06:13:40.280Z,96019.19
2023-02-26T06:16:07.205Z,96025.06
2023-02-26T06:18:33.917Z,96015.44
2023-02-26T06:21:01.724Z,96026.41
2023-02-26T06:23:28.717Z,96026.41
2023-02-26T06:25:55.468Z,96021.06
2023-02-26T06:28:24.573Z,96029.59
2023-02-26T06:30:53.462Z,96022.38
2023-02-26T06:33:20.795Z,96021.59
2023-02-26T06:35:47.652Z,96019.69
2023-02-26T06:38:15.336Z,96019.41
2023-02-26T06:40:42.067Z,96021.00
2023-02-26T06:43:08.976Z,96026.28
2023-02-26T06:45:36.172Z,96020.66
2023-02-26T06:48:03.052Z,96020.66
2023-02-26T06:50:29.809Z,96018.50
2023-02-26T06:52:56.889Z,96005.66
2023-02-26T06:55:27.005Z,96007.75
2023-02-26T06:57:57.502Z,96011.25
2023-02-26T07:00:25.876Z,96013.09
2023-02-26T07:02:53.133Z,96014.94
2023-02-26T07:05:19.924Z,96015.75
2023-02-26T07:07:47.027Z,96010.41
2023-02-26T07:10:14.006Z,96011.25
2023-02-26T07:12:40.708Z,96007.22
2023-02-26T07:15:08.014Z,96008.03
2023-02-26T07:17:34.846Z,95996.47
2023-02-26T07:20:06.311Z,96009.88
2023-02-26T07:22:33.725Z,96002.41
2023-02-26T07:25:00.537Z,96007.72
2023-02-26T07:27:27.273Z,95998.13
2023-02-26T07:29:53.988Z,96010.41
2023-02-26T07:32:20.808Z,96014.13
2023-02-26T07:34:47.520Z,96020.53
2023-02-26T07:37:14.647Z,96016.25
2023-02-26T07:39:41.278Z,96006.66
2023-02-26T07:42:09.295Z,96010.91
2023-02-26T07:44:36.059Z,96009.31
2023-02-26T07:47:02.771Z,96024.00
2023-02-26T07:49:29.571Z,96012.47
2023-02-26T07:51:56.579Z,96020.25
2023-02-26T07:54:23.230Z,96026.41
2023-02-26T07:56:50.669Z,96027.47
2023-02-26T07:59:17.407Z,96033.31
2023-02-26T08:01:44.223Z,96036.00
2023-02-26T08:04:11.281Z,96025.88
2023-02-26T08:06:38.114Z,96018.16
2023-02-26T08:09:05.516Z,96023.25
2023-02-26T08:11:39.823Z,96028.13
2023-02-26T08:14:11.064Z,96032.41
2023-02-26T08:16:37.988Z,96030.59
2023-02-26T08:19:04.955Z,96022.06
2023-02-26T08:21:31.809Z,96024.25
2023-02-26T08:23:58.536Z,96026.41
2023-02-26T08:26:25.495Z,96022.66
2023-02-26T08:28:52.464Z,96030.44
2023-02-26T08:31:19.386Z,96028.34
2023-02-26T08:33:46.162Z,96040.59
2023-02-26T08:36:13.134Z,96044.88
2023-02-26T08:38:39.815Z,96040.09
2023-02-26T08:41:06.687Z,96062.47
2023-02-26T08:43:33.473Z,96059.53
2023-02-26T08:46:00.663Z,96063.56
2023-02-26T08:48:27.471Z,96059.03
2023-02-26T08:50:54.314Z,96066.78
2023-02-26T08:53:21.209Z,96068.94
2023-02-26T08:55:50.056Z,96063.06
2023-02-26T08:58:19.180Z,96064.97
2023-02-26T09:00:46.476Z,96069.25
2023-02-26T09:03:13.930Z,96070.03
2023-02-26T09:05:40.988Z,96066.28
2023-02-26T09:08:08.809Z,96067.94
2023-02-26T09:10:35.632Z,96084.97
2023-02-26T09:13:02.719Z,96077.53
2023-02-26T09:15:29.376Z,96082.56
2023-02-26T09:17:56.282Z,96078.78
2023-02-26T09:20:23.371Z,96083.88
2023-02-26T09:22:50.056Z,96090.28
2023-02-26T09:25:17.221Z,96079.34
2023-02-26T09:27:43.954Z,96073.22
2023-02-26T09:30:11.318Z,96075.38
2023-02-26T09:32:38.408Z,96079.91
2023-02-26T09:35:05.781Z,96082.59
2023-02-26T09:37:33.288Z,96075.16
2023-02-26T09:40:00.255Z,96088.00
2023-02-26T09:42:35.998Z,96091.50
2023-02-26T09:45:04.388Z,96101.13
2023-02-26T09:47:41.611Z,96099.00
2023-02-26T09:50:15.799Z,96101.91
2023-02-26T09:52:51.401Z,96112.66
2023-02-26T09:55:32.117Z,96111.06
2023-02-26T09:58:11.590Z,96110.03
2023-02-26T10:00:45.368Z,96106.56
2023-02-26T10:03:30.541Z,96093.72
2023-02-26T10:06:41.940Z,96108.72
2023-02-26T10:09:39.928Z,96111.66
2023-02-26T10:12:35.380Z,96111.16
2023-02-26T10:15:13.365Z,96117.56
2023-02-26T10:18:13.432Z,96127.50
2023-02-26T10:21:02.475Z,96118.91
2023-02-26T10:23:39.477Z,96099.94
2023-02-26T10:26:17.658Z,96114.13
2023-02-26T10:29:12.524Z,96121.38
2023-02-26T10:32:01.117Z,96113.06
2023-02-26T10:34:34.148Z,96113.63
2023-02-26T10:37:28.956Z,96113.63
2023-02-26T10:40:22.101Z,96118.44
2023-02-26T10:43:00.338Z,96119.53
2023-02-26T10:45:33.700Z,96116.84
2023-02-26T10:48:12.558Z,96116.31
2023-02-26T10:50:48.589Z,96125.66
2023-02-26T10:53:15.673Z,96126.19
2023-02-26T10:55:47.558Z,96129.94
2023-02-26T10:58:24.429Z,96126.19
2023-02-26T11:00:54.461Z,96134.78
2023-02-26T11:03:25.189Z,96140.63
2023-02-26T11:05:51.844Z,96135.56
2023-02-26T11:08:27.206Z,96143.63
2023-02-26T11:10:56.642Z,96147.34
2023-02-26T11:13:25.714Z,96155.91
2023-02-26T11:15:55.298Z,96161.00
2023-02-26T11:18:27.313Z,96147.09
2023-02-26T11:20:58.254Z,96160.19
2023-02-26T11:23:28.614Z,96162.34
2023-02-26T11:26:05.091Z,96161.81
2023-02-26T11:28:37.040Z,96158.88
2023-02-26T11:31:11.439Z,96174.41
2023-02-26T11:33:49.115Z,96166.66
2023-02-26T11:36:19.453Z,96170.94
2023-02-26T11:38:54.204Z,96153.25
2023-02-26T11:41:22.936Z,96160.22
2023-02-26T11:44:22.281Z,96166.66
2023-02-26T11:46:58.301Z,96170.41
2023-02-26T11:49:28.887Z,96164.75
2023-02-26T11:52:07.042Z,96154.84
2023-02-26T11:54:37.689Z,96157.53
2023-02-26T11:57:15.882Z,96161.81
2023-02-26T11:59:48.468Z,96157.00
2023-02-26T12:02:18.702Z,96142.56
2023-02-26T12:04:47.777Z,96144.41
2023-02-26T12:07:16.355Z,96145.22
2023-02-26T12:09:44.575Z,96165.03
2023-02-26T12:12:37.433Z,96172.53
2023-02-26T12:15:16.207Z,96169.59
2023-02-26T12:17:58.774Z,96173.84
2023-02-26T12:20:28.689Z,96181.34
2023-02-26T12:23:35.530Z,96182.72
2023-02-26T12:26:09.898Z,96190.19
2023-02-26T12:28:54.977Z,96200.91
2023-02-26T12:31:38.702Z,96212.97
2023-02-26T12:34:25.709Z,96211.06
2023-02-26T12:37:46.941Z,96214.56
2023-02-26T12:40:47.074Z,96216.44
2023-02-26T12:43:55.432Z,96218.06
2023-02-26T12:46:52.217Z,96220.44
2023-02-26T12:49:35.038Z,96223.38
2023-02-26T12:52:08.129Z,96227.41
2023-02-26T12:54:55.168Z,96222.84
2023-02-26T12:57:46.874Z,96225.81
2023-02-26T13:01:01.135Z,96234.66
2023-02-26T13:03:43.570Z,96237.84
2023-02-26T13:06:29.172Z,96238.91
2023-02-26T13:09:01.888Z,96234.63
2023-02-26T13:12:06.258Z,96234.09
2023-02-26T13:14:33.303Z,96238.94
2023-02-26T13:17:32.301Z,96241.34
2023-02-26T13:20:05.599Z,96244.03
2023-02-26T13:22:46.668Z,96237.84
2023-02-26T13:25:33.959Z,96247.53
2023-02-26T13:28:05.005Z,96254.47
2023-02-26T13:30:39.888Z,96257.16
2023-02-26T13:33:16.020Z,96246.16
2023-02-26T13:35:43.424Z,96264.91
2023-02-26T13:38:37.102Z,96258.75
2023-02-26T13:41:18.121Z,96277.50
2023-02-26T13:43:55.532Z,96272.69
2023-02-26T13:46:45.041Z,96278.84
2023-02-26T13:49:19.062Z,96275.63
2023-02-26T13:51:48.975Z,96279.63
2023-02-26T13:54:34.154Z,96270.78
2023-02-26T13:57:23.106Z,96272.66
2023-02-26T13:59:58.792Z,96283.13
2023-02-26T14:02:35.887Z,96270.25
2023-02-26T14:05:11.496Z,96277.50
2023-02-26T14:08:12.802Z,96298.69
2023-02-26T14:11:05.166Z,96298.13
2023-02-26T14:13:41.167Z,96296.50
2023-02-26T14:16:22.461Z,96309.66
2023-02-26T14:18:50.965Z,96315.03
2023-02-26T14:21:38.051Z,96324.94
2023-02-26T14:24:18.954Z,96320.38
2023-02-26T14:27:03.551Z,96315.00
2023-02-26T14:29:42.829Z,96320.09
2023-02-26T14:32:30.574Z,96325.72
2023-02-26T14:35:03.920Z,96330.81
2023-02-26T14:37:33.305Z,96335.13
2023-02-26T14:40:09.104Z,96339.13
2023-02-26T14:42:49.131Z,96358.69
2023-02-26T14:45:33.089Z,96354.94
2023-02-26T14:48:02.005Z,96353.31
2023-02-26T14:51:06.598Z,96364.31
2023-02-26T14:53:57.240Z,96367.53
2023-02-26T14:56:41.913Z,96377.47
2023-02-26T14:59:17.618Z,96378.00
2023-02-26T15:02:29.466Z,96364.06
2023-02-26T15:05:22.613Z,96390.84
2023-02-26T15:08:13.826Z,96384.69
2023-02-26T15:11:07.112Z,96387.91
2023-02-26T15:14:06.313Z,96387.91
2023-02-26T15:16:46.527Z,96389.78
2023-02-26T15:19:15.323Z,96391.69
2023-02-26T15:22:28.448Z,96404.00
2023-02-26T15:24:55.492Z,96402.66
2023-02-26T15:27:22.490Z,96400.50
2023-02-26T15:29:52.886Z,96423.31
2023-02-26T15:32:25.886Z,96420.59
2023-02-26T15:35:16.124Z,96419.53
2023-02-26T15:37:42.910Z,96404.75
2023-02-26T15:40:10.958Z,96410.69
2023-02-26T15:42:40.604Z,96427.56
2023-02-26T15:45:16.456Z,96449.53
2023-02-26T15:47:43.303Z,96431.56
2023-02-26T15:50:16.308Z,96425.41
2023-02-26T15:52:43.628Z,96436.13
2023-02-26T15:55:17.470Z,96447.13
2023-02-26T15:57:44.210Z,96441.75
2023-02-26T16:00:17.648Z,96440.41
2023-02-26T16:02:45.840Z,96445.75
2023-02-26T16:05:14.985Z,96450.59
2023-02-26T16:07:41.817Z,96448.47
2023-02-26T16:10:17.850Z,96463.72
2023-02-26T16:12:49.431Z,96469.34
2023-02-26T16:15:28.620Z,96474.16
2023-02-26T16:17:56.492Z,96474.69
2023-02-26T16:20:27.349Z,96463.44
2023-02-26T16:23:00.039Z,96453.53
2023-02-26T16:25:53.355Z,96447.88
2023-02-26T16:28:23.532Z,96465.56
2023-02-26T16:30:55.376Z,96512.19
2023-02-26T16:33:24.087Z,96520.22
2023-02-26T16:36:15.866Z,96488.59
2023-02-26T16:38:56.533Z,96490.72
2023-02-26T16:41:27.533Z,96508.38
2023-02-26T16:43:58.143Z,96499.53
2023-02-26T16:46:45.755Z,96504.09
2023-02-26T16:49:25.391Z,96508.38
2023-02-26T16:51:53.964Z,96501.72
2023-02-26T16:54:32.076Z,96515.66
2023-02-26T16:57:05.310Z,96513.75
2023-02-26T16:59:36.197Z,96508.09
2023-02-26T17:02:22.966Z,96527.97
2023-02-26T17:05:05.674Z,96526.09
2023-02-26T17:07:37.927Z,96512.69
2023-02-26T17:10:22.872Z,96523.41
2023-02-26T17:12:52.407Z,96525.03
2023-02-26T17:15:31.329Z,96523.41
2023-02-26T17:17:59.172Z,96517.53
2023-02-26T17:20:28.089Z,96532.00
2023-02-26T17:22:56.146Z,96547.81
2023-02-26T17:25:25.475Z,96546.50
2023-02-26T17:27:52.775Z,96549.97
2023-02-26T17:30:24.154Z,96551.34
2023-02-26T17:32:50.978Z,96560.41
2023-02-26T17:35:19.422Z,96564.13
2023-02-26T17:37:50.953Z,96548.00
2023-02-26T17:40:27.185Z,96545.06
2023-02-26T17:42:54.423Z,96532.97
2023-02-26T17:45:21.805Z,96543.72
2023-02-26T17:47:50.326Z,96542.63
2023-02-26T17:50:30.796Z,96529.97
2023-02-26T17:52:58.028Z,96537.50
2023-02-26T17:55:28.577Z,96532.41
2023-02-26T17:57:56.775Z,96547.44
2023-02-26T18:00:24.092Z,96558.13
2023-02-26T18:02:51.655Z,96557.59
2023-02-26T18:05:20.056Z,96554.34
2023-02-26T18:07:47.965Z,96545.75
2023-02-26T18:10:21.364Z,96544.19
2023-02-26T18:12:49.350Z,96547.41
2023-02-26T18:15:16.778Z,96543.66
2023-02-26T18:17:43.782Z,96561.06
2023-02-26T18:20:24.085Z,96547.34
2023-02-26T18:22:51.074Z,96560.78
2023-02-26T18:25:18.078Z,96557.88
2023-02-26T18:27:45.296Z,96556.25
2023-02-26T18:30:24.360Z,96568.88
2023-02-26T18:32:51.235Z,96569.91
2023-02-26T18:35:18.437Z,96571.50
2023-02-26T18:37:46.015Z,96572.00
2023-02-26T18:40:17.943Z,96571.44
2023-02-26T18:42:44.760Z,96567.16
2023-02-26T18:45:12.011Z,96560.19
2023-02-26T18:47:39.347Z,96563.41
2023-02-26T18:50:08.467Z,96551.59
2023-02-26T18:52:35.796Z,96538.13
2023-02-26T18:55:06.329Z,96562.25
2023-02-26T18:57:33.552Z,96538.13
2023-02-26T19:00:00.313Z,96531.97
2023-02-26T19:02:27.908Z,96556.38
2023-02-26T19:04:54.550Z,96559.84
2023-02-26T19:07:21.726Z,96564.41
2023-02-26T19:09:48.480Z,96574.06
2023-02-26T19:12:19.533Z,96575.38
2023-02-26T19:14:49.947Z,96574.03
2023-02-26T19:17:16.613Z,96569.22
2023-02-26T19:19:43.330Z,96538.41
2023-02-26T19:22:10.895Z,96545.66
2023-02-26T19:24:37.772Z,96566.28
2023-02-26T19:27:04.670Z,96574.06
2023-02-26T19:29:34.229Z,96561.22
2023-02-26T19:32:07.282Z,96567.66
2023-02-26T19:34:34.924Z,96565.28
2023-02-26T19:37:01.871Z,96579.47
2023-02-26T19:39:29.155Z,96582.72
2023-02-26T19:41:56.153Z,96581.34
2023-02-26T19:44:24.251Z,96597.16
2023-02-26T19:46:51.220Z,96591.28
2023-02-26T19:49:18.512Z,96588.34
2023-02-26T19:51:45.805Z,96604.63
2023-02-26T19:54:15.220Z,96603.84
2023-02-26T19:56:43.831Z,96591.25
2023-02-26T19:59:10.891Z,96589.38
2023-02-26T20:01:37.636Z,96588.88
2023-02-26T20:04:04.570Z,96591.03
2023-02-26T20:06:31.735Z,96605.22
2023-02-26T20:08:58.502Z,96608.97
2023-02-26T20:11:25.452Z,96606.81
2023-02-26T20:13:52.514Z,96604.66
2023-02-26T20:16:20.073Z,96605.72
2023-02-26T20:18:46.818Z,96613.78
2023-02-26T20:21:14.141Z,96621.00
2023-02-26T20:23:41.570Z,96613.44
2023-02-26T20:26:14.415Z,96622.31
2023-02-26T20:28:42.253Z,96623.38
2023-02-26T20:31:10.176Z,96617.50
2023-02-26T20:33:39.572Z,96631.44
2023-02-26T20:36:10.367Z,96626.09
2023-02-26T20:38:37.739Z,96622.88
2023-02-26T20:41:05.425Z,96616.94
2023-02-26T20:43:32.929Z,96620.72
2023-02-26T20:45:59.624Z,96616.72
2023-02-26T20:48:26.618Z,96615.94
2023-02-26T20:50:58.478Z,96619.13
2023-02-26T20:53:25.192Z,96633.06
2023-02-26T20:55:51.821Z,96623.88
2023-02-26T20:58:20.108Z,96638.06
2023-02-26T21:00:46.836Z,96645.81
2023-02-26T21:03:13.746Z,96644.72
2023-02-26T21:05:41.815Z,96646.81
2023-02-26T21:08:10.576Z,96648.88
2023-02-26T21:10:37.462Z,96641.63
2023-02-26T21:13:04.422Z,96642.44
2023-02-26T21:15:31.032Z,96635.19
2023-02-26T21:17:58.255Z,96633.88
2023-02-26T21:20:25.101Z,96623.09
2023-02-26T21:22:51.697Z,96617.75
2023-02-26T21:25:18.514Z,96614.22
2023-02-26T21:27:45.270Z,96619.31
2023-02-26T21:30:13.687Z,96627.66
2023-02-26T21:32:41.428Z,96616.41
2023-02-26T21:35:12.275Z,96622.81
2023-02-26T21:37:39.108Z,96638.06
2023-02-26T21:40:06.726Z,96618.78
2023-02-26T21:42:33.881Z,96629.72
2023-02-26T21:45:00.558Z,96626.25
2023-02-26T21:47:27.640Z,96626.81
2023-02-26T21:49:54.255Z,96627.84
2023-02-26T21:52:20.883Z,96618.47
2023-02-26T21:54:47.844Z,96615.81
2023-02-26T21:57:14.555Z,96623.63
2023-02-26T21:59:41.129Z,96627.41
2023-02-26T22:02:08.041Z,96633.28
2023-02-26T22:04:34.778Z,96636.53
2023-02-26T22:07:01.467Z,96625.78
2023-02-26T22:09:28.145Z,96629.84
2023-02-26T22:11:54.796Z,96633.91
2023-02-26T22:14:21.536Z,96643.53
2023-02-26T22:16:48.687Z,96641.63
2023-02-26T22:19:15.426Z,96653.13
2023-02-26T22:21:50.021Z,96650.69
2023-02-26T22:24:16.766Z,96649.56
2023-02-26T22:26:44.567Z,96653.09
2023-02-26T22:29:11.250Z,96651.50
2023-02-26T22:31:37.976Z,96649.34
2023-02-26T22:34:04.622Z,96652.91
2023-02-26T22:36:31.557Z,96636.78
2023-02-26T22:38:58.692Z,96638.44
2023-02-26T22:41:25.372Z,96638.44
2023-02-26T22:43:54.112Z,96635.50
2023-02-26T22:46:23.238Z,96637.13
2023-02-26T22:48:51.349Z,96623.47
2023-02-26T22:51:18.029Z,96632.31
2023-02-26T22:53:44.669Z,96630.16
2023-02-26T22:56:11.287Z,96636.63
2023-02-26T22:58:38.754Z,96634.69
2023-02-26T23:01:07.321Z,96638.75
2023-02-26T23:03:34.291Z,96638.72
2023-02-26T23:06:01.268Z,96649.94
2023-02-26T23:08:28.198Z,96656.38
2023-02-26T23:10:56.919Z,96644.56
2023-02-26T23:13:24.432Z,96655.81
2023-02-26T23:15:51.248Z,96660.63
2023-02-26T23:18:17.981Z,96670.22
2023-02-26T23:20:45.632Z,96662.44
2023-02-26T23:23:12.349Z,96653.06
2023-02-26T23:25:41.909Z,96652.50
2023-02-26T23:28:08.741Z,96652.50
2023-02-26T23:30:35.944Z,96648.50
2023-02-26T23:33:04.193Z,96644.50
2023-02-26T23:35:31.091Z,96618.31
2023-02-26T23:37:57.830Z,96605.72
2023-02-26T23:40:24.940Z,96591.56
2023-02-26T23:42:52.140Z,96579.19
2023-02-26T23:45:19.424Z,96569.53
2023-02-26T23:47:46.075Z,96588.19
2023-02-26T23:50:13.159Z,96594.63
2023-02-26T23:52:39.958Z,96588.69
2023-02-26T23:55:07.278Z,96591.94
2023-02-26T23:57:34.206Z,96605.34
